Buoy 43533

sailwx.info

Track history (hours):
 
Tides and Currents Weather Stations Pressure Air Temp Water Temp Dewpoint Dewpoint Depression Visibility Wind Speed Wind Dir Waves Ship Positions

Drifting buoy 43533

Last reported at 2014-Aug-21 16:00 UTC. Time now 2014-Aug-21 20:01 UTC.
Position N 12°39' W 104°44'.

Length 24 m.

Type: Fishing. MMSI: 412466549.

Water temperature 29.6 ° C

Date/timePositionNaut miles runAvg speedWind from/ knotsBaromVisibWave heightAir tempDewpointWater temp
2014-Aug-21 16:00N 12°39' W 104°44'3 0.9 29.6
2014-Aug-21 13:00N 12°38' W 104°42'0 0.5 29.6
2014-Aug-21 12:00N 12°38' W 104°42'1 0.6 29.6
2014-Aug-21 11:00N 12°37' W 104°41'2 1.7 29.6
2014-Aug-21 10:00N 12°36' W 104°40'3 1.3 29.6
2014-Aug-21 08:00N 12°34' W 104°38'1 0.2 29.7
2014-Aug-21 04:00N 12°34' W 104°38'2 1.8 29.7
2014-Aug-21 03:00N 12°33' W 104°36'0 0.0 29.7
2014-Aug-21 02:00N 12°33' W 104°36'1 0.5 29.7
2014-Aug-21 00:00N 12°33' W 104°35'1 1.1 29.7
2014-Aug-20 23:00N 12°32' W 104°34'1 1.4 29.8
2014-Aug-20 22:00N 12°31' W 104°33'0 0.0 29.8
2014-Aug-20 21:00N 12°31' W 104°33'3 1.4 29.7
2014-Aug-20 19:00N 12°30' W 104°31'1 0.7 29.8
2014-Aug-20 17:00N 12°29' W 104°30'0 0.0 29.6
2014-Aug-20 16:00N 12°29' W 104°30'4 0.7 29.6
2014-Aug-20 11:00N 12°26' W 104°27'2 2.2 29.6
2014-Aug-20 10:00N 12°25' W 104°25'3 1.5 29.6
2014-Aug-20 08:00N 12°24' W 104°23'3 3.0 29.6
2014-Aug-20 07:00N 12°25' W 104°25'3 1.5 29.6
2014-Aug-20 05:00N 12°24' W 104°23'1 0.5 29.7
2014-Aug-20 03:00N 12°24' W 104°22'0 0.0 29.7
2014-Aug-20 02:00N 12°24' W 104°22'3 0.6 29.7
2014-Aug-19 22:00N 12°22' W 104°20'0 0.0 32.1
2014-Aug-19 21:00N 12°22' W 104°20'3 2.6 31.4
2014-Aug-19 20:00N 12°21' W 104°17'1 0.2 30.8
2014-Aug-19 17:00N 12°21' W 104°17'1 0.4 30.4
2014-Aug-19 15:00N 12°21' W 104°16'1 1.1 29.6
2014-Aug-19 14:00N 12°20' W 104°16'1 0.5 29.5
2014-Aug-19 12:00N 12°19' W 104°15'1 1.5 29.5
2014-Aug-19 11:00N 12°19' W 104°14'2 0.7 29.5
2014-Aug-19 08:00N 12°17' W 104°12'0 0.1 29.6
2014-Aug-19 04:00N 12°17' W 104°12'1 1.1 29.7
2014-Aug-19 03:00N 12°16' W 104°11'0 0.2 29.8
2014-Aug-19 01:00N 12°15' W 104°11'0 0.0 29.9
2014-Aug-19 00:00N 12°15' W 104°11'0 0.3 30.0
2014-Aug-18 23:00N 12°15' W 104°11'0 0.3 30.4
2014-Aug-18 22:00N 12°15' W 104°11'1 0.6 30.3
2014-Aug-18 21:00N 12°15' W 104°10'1 0.6 30.1
2014-Aug-18 20:00N 12°14' W 104°10'1 0.2 30.1
2014-Aug-18 16:00N 12°14' W 104°09'0 0.3 29.4
2014-Aug-18 15:00N 12°14' W 104°10'2 0.5 29.4
2014-Aug-18 12:00N 12°12' W 104°09'1 0.7 29.4
2014-Aug-18 11:00N 12°12' W 104°09'0 0.0 29.4
2014-Aug-18 09:00N 12°12' W 104°09'1 0.3 29.3
2014-Aug-18 05:00N 12°11' W 104°08'0 0.1 29.4
2014-Aug-18 04:00N 12°11' W 104°08'1 0.4 29.4
2014-Aug-18 01:00N 12°10' W 104°09'1 0.5 29.4
2014-Aug-18 00:00N 12°10' W 104°08'1 0.3 29.4
2014-Aug-17 22:00N 12°09' W 104°08'0 0.0 29.5
2014-Aug-17 21:00N 12°09' W 104°08'2 0.4 29.5
2014-Aug-17 17:00N 12°08' W 104°07'0 0.0 29.5
2014-Aug-17 16:00N 12°08' W 104°07'2 0.5 29.4
2014-Aug-17 13:00N 12°06' W 104°07'0 0.0 29.4
2014-Aug-17 12:00N 12°06' W 104°07'1 1.3 29.4
2014-Aug-17 11:00N 12°05' W 104°06'1 0.7 29.4
2014-Aug-17 09:00N 12°04' W 104°05'1 1.3 29.4
2014-Aug-17 08:00N 12°05' W 104°06'1 0.3 29.4
2014-Aug-17 05:00N 12°05' W 104°05'0 0.2 29.4
2014-Aug-17 03:00N 12°05' W 104°05'0 0.0 29.4
2014-Aug-17 02:00N 12°05' W 104°05'1 0.8 29.4
2014-Aug-17 01:00N 12°04' W 104°04'0 0.3 29.4
2014-Aug-17 00:00N 12°04' W 104°04'0 0.1 29.4
2014-Aug-16 23:00N 12°04' W 104°04'0 0.0 29.4
2014-Aug-16 22:00N 12°04' W 104°04'0 0.2 29.4
2014-Aug-16 20:00N 12°05' W 104°04'0 0.0 29.5
2014-Aug-16 17:00N 12°05' W 104°04'0 0.3 29.6
2014-Aug-16 16:00N 12°04' W 104°03'0 0.1 29.5
2014-Aug-16 15:00N 12°04' W 104°03'0 0.1 29.5
2014-Aug-16 12:00N 12°04' W 104°03'0 0.4 29.5
2014-Aug-16 11:00N 12°05' W 104°03'0 0.0 29.5
2014-Aug-16 10:00N 12°05' W 104°03'1 0.8 29.5
2014-Aug-16 09:00N 12°04' W 104°04'2 1.1 29.5
2014-Aug-16 07:00N 12°02' W 104°04'0 0.1 29.5
2014-Aug-16 04:00N 12°02' W 104°04'1 1.0 29.5
2014-Aug-16 03:00N 12°01' W 104°04'1 0.4 29.5
2014-Aug-16 01:00N 12°00' W 104°03'1 0.5 29.6
2014-Aug-15 23:00N 11°59' W 104°04'1 1.0 29.6
2014-Aug-15 22:00N 12°00' W 104°03'2 1.2 29.6
2014-Aug-15 20:00N 11°58' W 104°04'0 0.0 29.6
2014-Aug-15 19:00N 11°58' W 104°04'1 0.3 29.5
2014-Aug-15 16:00N 11°58' W 104°03'2 2.4 29.4
2014-Aug-15 15:00N 11°57' W 104°01'1 0.3 29.4
2014-Aug-15 12:00N 11°56' W 104°00'0 0.0 29.5
2014-Aug-15 10:00N 11°56' W 104°00'1 0.7 29.5
2014-Aug-15 09:00N 11°56' W 103°60'0 0.0 29.6
2014-Aug-15 08:00N 11°56' W 103°60'1 0.3 29.6
2014-Aug-15 05:00N 11°56' W 103°59'0 0.4 29.6
2014-Aug-15 04:00N 11°56' W 103°59'1 1.1 29.7
2014-Aug-15 03:00N 11°57' W 103°58'0 0.0 29.7
2014-Aug-15 02:00N 11°57' W 103°58'1 0.3 29.7
2014-Aug-14 23:00N 11°57' W 103°57'1 0.4 29.8
2014-Aug-14 21:00N 11°58' W 103°57'1 0.4 29.8
2014-Aug-14 17:00N 11°60' W 103°57'0 0.5 29.6
2014-Aug-14 16:00N 12°00' W 103°57'1 0.6 29.5
2014-Aug-14 15:00N 12°01' W 103°57'1 0.4 29.5
2014-Aug-14 13:00N 11°60' W 103°57'1 0.7 29.5
2014-Aug-14 12:00N 12°01' W 103°57'0 0.2 29.5
2014-Aug-14 11:00N 12°00' W 103°57'0 0.3 29.5
2014-Aug-14 10:00N 12°01' W 103°57'1 0.7 29.5
2014-Aug-14 09:00N 12°01' W 103°58'2 0.3 29.6
2014-Aug-14 04:00N 12°01' W 103°60'1 0.9 29.5
2014-Aug-14 03:00N 12°00' W 103°60'0 0.1 29.6
2014-Aug-13 23:00N 11°60' W 104°00'1 1.2 29.7
2014-Aug-13 22:00N 11°59' W 104°00'0 0.0 29.8
2014-Aug-13 21:00N 11°59' W 104°00'1 0.5 29.7
2014-Aug-13 19:00N 11°59' W 104°02'1 0.3 29.7
2014-Aug-13 17:00N 11°58' W 104°01'0 0.1 29.6
2014-Aug-13 16:00N 11°58' W 104°01'0 0.0 29.6
2014-Aug-13 15:00N 11°58' W 104°01'1 0.5 29.6
2014-Aug-13 13:00N 11°58' W 104°00'0 0.0 29.6
2014-Aug-13 12:00N 11°58' W 104°00'0 0.2 29.5
2014-Aug-13 11:00N 11°58' W 104°00'0 0.2 29.6
2014-Aug-13 10:00N 11°58' W 104°01'1 0.7 29.6
2014-Aug-13 09:00N 11°59' W 104°01'2 1.7 29.6
2014-Aug-13 08:00N 12°00' W 104°02'0 0.1 29.6
2014-Aug-13 04:00N 12°00' W 104°02'1 0.9 29.8
2014-Aug-13 03:00N 12°00' W 104°03'0 0.0 29.8
2014-Aug-13 01:00N 12°00' W 104°03'0 0.1 29.9
2014-Aug-13 00:00N 12°00' W 104°03'1 0.3 29.9
2014-Aug-12 22:00N 12°00' W 104°04'0 0.0 29.9
2014-Aug-12 21:00N 12°00' W 104°04'2 0.9 29.8
2014-Aug-12 19:00N 12°01' W 104°05'0 0.0 29.7
2014-Aug-12 17:00N 12°01' W 104°05'1 0.6 29.5
2014-Aug-12 16:00N 12°01' W 104°06'1 0.7 29.5
2014-Aug-12 15:00N 12°00' W 104°06'0 0.0 29.4
2014-Aug-12 11:00N 12°00' W 104°07'1 0.5 29.4
2014-Aug-12 10:00N 12°00' W 104°07'2 0.9 29.4
2014-Aug-12 08:00N 12°00' W 104°09'0 0.1 29.4
2014-Aug-12 05:00N 12°00' W 104°09'1 0.3 29.4
2014-Aug-12 03:00N 12°00' W 104°10'1 0.2 29.5
2014-Aug-12 00:00N 12°00' W 104°09'1 0.5 29.5
2014-Aug-11 22:00N 11°60' W 104°10'0 0.0 29.5
2014-Aug-11 21:00N 11°60' W 104°10'1 0.6 29.5
2014-Aug-11 19:00N 11°59' W 104°11'0 0.2 29.5
2014-Aug-11 17:00N 11°59' W 104°11'1 0.6 29.6
2014-Aug-11 16:00N 11°59' W 104°11'   29.5
Track history (hours):
 
Tides and Currents Weather Stations Pressure Air Temp Water Temp Dewpoint Dewpoint Depression Visibility Wind Speed Wind Dir Waves Ship Positions

Drifting buoy 43533

Last reported at 2014-Aug-21 16:00 UTC. Time now 2014-Aug-21 20:01 UTC.
Position N 12°39' W 104°44'.

Length 24 m.

Type: Fishing. MMSI: 412466549.

Water temperature 29.6 ° C

Date/timePositionNaut miles runAvg speedWind from/ knotsBaromVisibWave heightAir tempDewpointWater temp
2014-Aug-21 16:00N 12°39' W 104°44'3 0.9 29.6
2014-Aug-21 13:00N 12°38' W 104°42'0 0.5 29.6
2014-Aug-21 12:00N 12°38' W 104°42'1 0.6 29.6
2014-Aug-21 11:00N 12°37' W 104°41'2 1.7 29.6
2014-Aug-21 10:00N 12°36' W 104°40'3 1.3 29.6
2014-Aug-21 08:00N 12°34' W 104°38'1 0.2 29.7
2014-Aug-21 04:00N 12°34' W 104°38'2 1.8 29.7
2014-Aug-21 03:00N 12°33' W 104°36'0 0.0 29.7
2014-Aug-21 02:00N 12°33' W 104°36'1 0.5 29.7
2014-Aug-21 00:00N 12°33' W 104°35'1 1.1 29.7
2014-Aug-20 23:00N 12°32' W 104°34'1 1.4 29.8
2014-Aug-20 22:00N 12°31' W 104°33'0 0.0 29.8
2014-Aug-20 21:00N 12°31' W 104°33'3 1.4 29.7
2014-Aug-20 19:00N 12°30' W 104°31'1 0.7 29.8
2014-Aug-20 17:00N 12°29' W 104°30'0 0.0 29.6
2014-Aug-20 16:00N 12°29' W 104°30'4 0.7 29.6
2014-Aug-20 11:00N 12°26' W 104°27'2 2.2 29.6
2014-Aug-20 10:00N 12°25' W 104°25'3 1.5 29.6
2014-Aug-20 08:00N 12°24' W 104°23'3 3.0 29.6
2014-Aug-20 07:00N 12°25' W 104°25'3 1.5 29.6
2014-Aug-20 05:00N 12°24' W 104°23'1 0.5 29.7
2014-Aug-20 03:00N 12°24' W 104°22'0 0.0 29.7
2014-Aug-20 02:00N 12°24' W 104°22'3 0.6 29.7
2014-Aug-19 22:00N 12°22' W 104°20'0 0.0 32.1
2014-Aug-19 21:00N 12°22' W 104°20'3 2.6 31.4
2014-Aug-19 20:00N 12°21' W 104°17'1 0.2 30.8
2014-Aug-19 17:00N 12°21' W 104°17'1 0.4 30.4
2014-Aug-19 15:00N 12°21' W 104°16'1 1.1 29.6
2014-Aug-19 14:00N 12°20' W 104°16'1 0.5 29.5
2014-Aug-19 12:00N 12°19' W 104°15'1 1.5 29.5
2014-Aug-19 11:00N 12°19' W 104°14'2 0.7 29.5
2014-Aug-19 08:00N 12°17' W 104°12'0 0.1 29.6
2014-Aug-19 04:00N 12°17' W 104°12'1 1.1 29.7
2014-Aug-19 03:00N 12°16' W 104°11'0 0.2 29.8
2014-Aug-19 01:00N 12°15' W 104°11'0 0.0 29.9
2014-Aug-19 00:00N 12°15' W 104°11'0 0.3 30.0
2014-Aug-18 23:00N 12°15' W 104°11'0 0.3 30.4
2014-Aug-18 22:00N 12°15' W 104°11'1 0.6 30.3
2014-Aug-18 21:00N 12°15' W 104°10'1 0.6 30.1
2014-Aug-18 20:00N 12°14' W 104°10'1 0.2 30.1
2014-Aug-18 16:00N 12°14' W 104°09'0 0.3 29.4
2014-Aug-18 15:00N 12°14' W 104°10'2 0.5 29.4
2014-Aug-18 12:00N 12°12' W 104°09'1 0.7 29.4
2014-Aug-18 11:00N 12°12' W 104°09'0 0.0 29.4
2014-Aug-18 09:00N 12°12' W 104°09'1 0.3 29.3
2014-Aug-18 05:00N 12°11' W 104°08'0 0.1 29.4
2014-Aug-18 04:00N 12°11' W 104°08'1 0.4 29.4
2014-Aug-18 01:00N 12°10' W 104°09'1 0.5 29.4
2014-Aug-18 00:00N 12°10' W 104°08'1 0.3 29.4
2014-Aug-17 22:00N 12°09' W 104°08'0 0.0 29.5
2014-Aug-17 21:00N 12°09' W 104°08'2 0.4 29.5
2014-Aug-17 17:00N 12°08' W 104°07'0 0.0 29.5
2014-Aug-17 16:00N 12°08' W 104°07'2 0.5 29.4
2014-Aug-17 13:00N 12°06' W 104°07'0 0.0 29.4
2014-Aug-17 12:00N 12°06' W 104°07'1 1.3 29.4
2014-Aug-17 11:00N 12°05' W 104°06'1 0.7 29.4
2014-Aug-17 09:00N 12°04' W 104°05'1 1.3 29.4
2014-Aug-17 08:00N 12°05' W 104°06'1 0.3 29.4
2014-Aug-17 05:00N 12°05' W 104°05'0 0.2 29.4
2014-Aug-17 03:00N 12°05' W 104°05'0 0.0 29.4
2014-Aug-17 02:00N 12°05' W 104°05'1 0.8 29.4
2014-Aug-17 01:00N 12°04' W 104°04'0 0.3 29.4
2014-Aug-17 00:00N 12°04' W 104°04'0 0.1 29.4
2014-Aug-16 23:00N 12°04' W 104°04'0 0.0 29.4
2014-Aug-16 22:00N 12°04' W 104°04'0 0.2 29.4
2014-Aug-16 20:00N 12°05' W 104°04'0 0.0 29.5
2014-Aug-16 17:00N 12°05' W 104°04'0 0.3 29.6
2014-Aug-16 16:00N 12°04' W 104°03'0 0.1 29.5
2014-Aug-16 15:00N 12°04' W 104°03'0 0.1 29.5
2014-Aug-16 12:00N 12°04' W 104°03'0 0.4 29.5
2014-Aug-16 11:00N 12°05' W 104°03'0 0.0 29.5
2014-Aug-16 10:00N 12°05' W 104°03'1 0.8 29.5
2014-Aug-16 09:00N 12°04' W 104°04'2 1.1 29.5
2014-Aug-16 07:00N 12°02' W 104°04'0 0.1 29.5
2014-Aug-16 04:00N 12°02' W 104°04'1 1.0 29.5
2014-Aug-16 03:00N 12°01' W 104°04'1 0.4 29.5
2014-Aug-16 01:00N 12°00' W 104°03'1 0.5 29.6
2014-Aug-15 23:00N 11°59' W 104°04'1 1.0 29.6
2014-Aug-15 22:00N 12°00' W 104°03'2 1.2 29.6
2014-Aug-15 20:00N 11°58' W 104°04'0 0.0 29.6
2014-Aug-15 19:00N 11°58' W 104°04'1 0.3 29.5
2014-Aug-15 16:00N 11°58' W 104°03'2 2.4 29.4
2014-Aug-15 15:00N 11°57' W 104°01'1 0.3 29.4
2014-Aug-15 12:00N 11°56' W 104°00'0 0.0 29.5
2014-Aug-15 10:00N 11°56' W 104°00'1 0.7 29.5
2014-Aug-15 09:00N 11°56' W 103°60'0 0.0 29.6
2014-Aug-15 08:00N 11°56' W 103°60'1 0.3 29.6
2014-Aug-15 05:00N 11°56' W 103°59'0 0.4 29.6
2014-Aug-15 04:00N 11°56' W 103°59'1 1.1 29.7
2014-Aug-15 03:00N 11°57' W 103°58'0 0.0 29.7
2014-Aug-15 02:00N 11°57' W 103°58'1 0.3 29.7
2014-Aug-14 23:00N 11°57' W 103°57'1 0.4 29.8
2014-Aug-14 21:00N 11°58' W 103°57'1 0.4 29.8
2014-Aug-14 17:00N 11°60' W 103°57'0 0.5 29.6
2014-Aug-14 16:00N 12°00' W 103°57'1 0.6 29.5
2014-Aug-14 15:00N 12°01' W 103°57'1 0.4 29.5
2014-Aug-14 13:00N 11°60' W 103°57'1 0.7 29.5
2014-Aug-14 12:00N 12°01' W 103°57'0 0.2 29.5
2014-Aug-14 11:00N 12°00' W 103°57'0 0.3 29.5
2014-Aug-14 10:00N 12°01' W 103°57'1 0.7 29.5
2014-Aug-14 09:00N 12°01' W 103°58'2 0.3 29.6
2014-Aug-14 04:00N 12°01' W 103°60'1 0.9 29.5
2014-Aug-14 03:00N 12°00' W 103°60'0 0.1 29.6
2014-Aug-13 23:00N 11°60' W 104°00'1 1.2 29.7
2014-Aug-13 22:00N 11°59' W 104°00'0 0.0 29.8
2014-Aug-13 21:00N 11°59' W 104°00'1 0.5 29.7
2014-Aug-13 19:00N 11°59' W 104°02'1 0.3 29.7
2014-Aug-13 17:00N 11°58' W 104°01'0 0.1 29.6
2014-Aug-13 16:00N 11°58' W 104°01'0 0.0 29.6
2014-Aug-13 15:00N 11°58' W 104°01'1 0.5 29.6
2014-Aug-13 13:00N 11°58' W 104°00'0 0.0 29.6
2014-Aug-13 12:00N 11°58' W 104°00'0 0.2 29.5
2014-Aug-13 11:00N 11°58' W 104°00'0 0.2 29.6
2014-Aug-13 10:00N 11°58' W 104°01'1 0.7 29.6
2014-Aug-13 09:00N 11°59' W 104°01'2 1.7 29.6
2014-Aug-13 08:00N 12°00' W 104°02'0 0.1 29.6
2014-Aug-13 04:00N 12°00' W 104°02'1 0.9 29.8
2014-Aug-13 03:00N 12°00' W 104°03'0 0.0 29.8
2014-Aug-13 01:00N 12°00' W 104°03'0 0.1 29.9
2014-Aug-13 00:00N 12°00' W 104°03'1 0.3 29.9
2014-Aug-12 22:00N 12°00' W 104°04'0 0.0 29.9
2014-Aug-12 21:00N 12°00' W 104°04'2 0.9 29.8
2014-Aug-12 19:00N 12°01' W 104°05'0 0.0 29.7
2014-Aug-12 17:00N 12°01' W 104°05'1 0.6 29.5
2014-Aug-12 16:00N 12°01' W 104°06'1 0.7 29.5
2014-Aug-12 15:00N 12°00' W 104°06'0 0.0 29.4
2014-Aug-12 11:00N 12°00' W 104°07'1 0.5 29.4
2014-Aug-12 10:00N 12°00' W 104°07'2 0.9 29.4
2014-Aug-12 08:00N 12°00' W 104°09'0 0.1 29.4
2014-Aug-12 05:00N 12°00' W 104°09'1 0.3 29.4
2014-Aug-12 03:00N 12°00' W 104°10'1 0.2 29.5
2014-Aug-12 00:00N 12°00' W 104°09'1 0.5 29.5
2014-Aug-11 22:00N 11°60' W 104°10'0 0.0 29.5
2014-Aug-11 21:00N 11°60' W 104°10'1 0.6 29.5
2014-Aug-11 19:00N 11°59' W 104°11'0 0.2 29.5
2014-Aug-11 17:00N 11°59' W 104°11'1 0.6 29.6
2014-Aug-11 16:00N 11°59' W 104°11'   29.5

Dump ship's entire track history